Time;durP1;ratioP1;P1;durP2;ratioP2;P2;SDS_P1;SDS_P2;PMS_P1;PMS_P2;Temp;Humidity;BMP_temperature;BMP_pressure;BME280_temperature;BME280_humidity;BME280_pressure;Samples;Min_cycle;Max_cycle;Signal;HPM_P1;HPM_P2
2021/12/23 00:00:46;;;;;;;59.08;25.60;;;;;;;-6.44;96.11;100947.78;20858603;28;20037;-69
2021/12/23 00:10:47;;;;;;;59.05;23.38;;;;;;;-6.40;95.68;100938.66;20856766;28;20406;-71
2021/12/23 00:30:50;;;;;;;60.83;25.92;;;;;;;-6.22;97.27;100899.88;20854821;28;20056;-69
2021/12/23 00:40:52;;;;;;;63.70;26.05;;;;;;;-6.06;97.90;100881.25;20855448;28;20049;-70
2021/12/23 00:50:54;;;;;;;95.93;34.28;;;;;;;-5.91;98.80;100875.28;20857126;28;20053;-69
2021/12/23 01:00:58;;;;;;;82.68;31.40;;;;;;;-5.80;99.63;100862.31;20853375;28;20045;-69
2021/12/23 01:11:00;;;;;;;75.95;27.77;;;;;;;-5.73;100.00;100855.91;20858951;28;20053;-69
2021/12/23 01:21:05;;;;;;;73.35;28.33;;;;;;;-5.59;100.00;100849.03;20872204;28;20048;-69
2021/12/23 01:31:06;;;;;;;78.65;29.15;;;;;;;-5.54;100.00;100835.75;20867063;28;20103;-69
2021/12/23 01:41:08;;;;;;;74.78;28.58;;;;;;;-5.43;100.00;100834.66;20869687;28;20060;-70
2021/12/23 01:51:09;;;;;;;75.47;28.65;;;;;;;-5.21;100.00;100828.19;20867599;28;20052;-69
2021/12/23 02:01:11;;;;;;;76.22;31.70;;;;;;;-5.08;100.00;100822.03;20866735;28;20041;-69
2021/12/23 02:11:14;;;;;;;77.88;28.73;;;;;;;-5.02;100.00;100815.63;20867355;28;20521;-69
2021/12/23 02:21:15;;;;;;;75.15;28.88;;;;;;;-4.88;100.00;100797.59;20864778;28;20096;-70
2021/12/23 02:31:17;;;;;;;82.75;30.73;;;;;;;-4.90;100.00;100806.03;20865966;28;20049;-70
2021/12/23 02:41:19;;;;;;;80.32;29.25;;;;;;;-4.91;100.00;100783.84;20863625;28;20479;-69
2021/12/23 02:51:29;;;;;;;77.95;29.50;;;;;;;-4.79;100.00;100769.94;20861623;28;20193;-69
2021/12/23 03:01:30;;;;;;;75.38;28.92;;;;;;;-4.70;100.00;100752.53;20863865;28;20037;-69
2021/12/23 03:11:32;;;;;;;75.35;28.80;;;;;;;-4.56;100.00;100733.69;20860268;28;20060;-71
2021/12/23 03:21:35;;;;;;;79.25;28.70;;;;;;;-4.54;100.00;100754.22;20862092;28;20045;-70
2021/12/23 03:31:36;;;;;;;70.07;28.02;;;;;;;-4.49;100.00;100748.53;20858849;28;20102;-69
2021/12/23 03:41:38;;;;;;;74.40;28.33;;;;;;;-4.46;100.00;100733.31;20860284;28;20054;-70
2021/12/23 03:51:39;;;;;;;74.15;29.55;;;;;;;-4.38;100.00;100698.81;20859622;28;20102;-70
2021/12/23 04:01:41;;;;;;;75.90;29.40;;;;;;;-4.42;100.00;100691.78;20857311;28;20041;-70
2021/12/23 04:11:43;;;;;;;73.80;30.58;;;;;;;-4.55;100.00;100722.69;20859156;28;20514;-70
2021/12/23 04:21:44;;;;;;;71.50;28.08;;;;;;;-4.55;100.00;100706.44;20855853;28;20117;-69
2021/12/23 04:31:46;;;;;;;80.93;30.50;;;;;;;-4.56;100.00;100694.47;20857539;28;20053;-70
2021/12/23 04:41:47;;;;;;;75.28;29.13;;;;;;;-4.51;100.00;100676.00;20856863;28;20053;-70
2021/12/23 04:51:49;;;;;;;87.78;29.17;;;;;;;-4.55;100.00;100658.81;20872955;28;20083;-69
2021/12/23 05:01:51;;;;;;;81.60;30.75;;;;;;;-4.57;100.00;100667.19;20872503;28;20044;-70
2021/12/23 05:11:53;;;;;;;72.75;28.63;;;;;;;-4.52;100.00;100620.59;20869932;28;20053;-70
2021/12/23 05:21:54;;;;;;;74.95;29.25;;;;;;;-4.56;100.00;100626.38;20871954;28;20045;-70
2021/12/23 05:31:56;;;;;;;76.15;29.80;;;;;;;-4.61;100.00;100622.72;20867889;28;20054;-70
2021/12/23 05:41:58;;;;;;;79.90;29.90;;;;;;;-4.52;100.00;100628.28;20871478;28;20052;-70
2021/12/23 05:51:59;;;;;;;73.00;29.92;;;;;;;-4.50;100.00;100619.03;20866780;28;20061;-70
2021/12/23 06:02:05;;;;;;;72.78;28.23;;;;;;;-4.45;100.00;100602.22;20867560;28;20462;-70
2021/12/23 06:12:07;;;;;;;73.28;28.75;;;;;;;-4.60;100.00;100604.03;20866380;28;20095;-70
2021/12/23 06:22:08;;;;;;;69.05;28.58;;;;;;;-4.72;100.00;100590.66;20866260;28;20103;-70
2021/12/23 06:32:11;;;;;;;74.72;29.17;;;;;;;-4.73;100.00;100604.25;20863868;28;20103;-70
2021/12/23 06:42:12;;;;;;;79.07;30.98;;;;;;;-4.58;100.00;100582.00;20863117;28;20099;-71
2021/12/23 06:52:14;;;;;;;71.15;28.73;;;;;;;-4.50;100.00;100578.13;20865295;28;20107;-71
2021/12/23 07:02:16;;;;;;;73.00;29.42;;;;;;;-4.53;100.00;100570.31;20861699;28;20037;-68
2021/12/23 07:12:18;;;;;;;71.57;29.65;;;;;;;-4.56;100.00;100582.06;20859698;28;20038;-68
2021/12/23 07:22:20;;;;;;;73.72;30.42;;;;;;;-4.60;100.00;100560.59;20861046;28;20056;-68
2021/12/23 07:32:21;;;;;;;96.47;37.53;;;;;;;-4.49;100.00;100559.44;20859272;28;20102;-68
2021/12/23 07:42:25;;;;;;;156.85;52.55;;;;;;;-4.43;100.00;100554.59;20859778;28;20207;-68
2021/12/23 07:52:26;;;;;;;94.30;39.28;;;;;;;-3.68;97.61;100552.03;20858597;28;20119;-68
2021/12/23 08:02:28;;;;;;;70.88;31.40;;;;;;;-3.44;95.61;100558.19;20862343;28;20071;-68
2021/12/23 08:12:29;;;;;;;60.45;26.70;;;;;;;-3.74;97.57;100533.81;20866324;28;20900;-68
2021/12/23 08:22:31;;;;;;;75.25;30.38;;;;;;;-3.61;98.00;100541.22;20856631;28;20061;-68
2021/12/23 08:32:33;;;;;;;68.72;28.05;;;;;;;-3.34;98.14;100517.63;20856956;28;20050;-68
2021/12/23 08:42:35;;;;;;;64.97;28.92;;;;;;;-3.24;98.28;100512.06;20856033;28;20214;-68
2021/12/23 08:52:36;;;;;;;65.93;28.30;;;;;;;-2.99;98.17;100503.69;20857068;28;20057;-68
2021/12/23 09:02:38;;;;;;;62.30;27.90;;;;;;;-2.78;97.39;100508.78;20874303;28;20053;-68
2021/12/23 09:12:40;;;;;;;65.63;27.73;;;;;;;-2.58;97.14;100498.53;20853811;28;20083;-67
2021/12/23 09:22:42;;;;;;;65.07;26.35;;;;;;;-2.38;96.56;100483.88;20858892;28;20107;-67
2021/12/23 09:32:53;;;;;;;70.55;30.20;;;;;;;-2.21;96.75;100481.94;20861515;28;20054;-68
2021/12/23 09:43:14;;;;;;;69.45;29.52;;;;;;;-2.08;96.46;100455.91;20861669;28;20406;-68
2021/12/23 09:53:21;;;;;;;71.03;30.58;;;;;;;-1.92;96.56;100466.72;20860608;28;20411;-67
2021/12/23 10:03:23;;;;;;;72.13;30.95;;;;;;;-1.73;96.06;100468.25;20969678;22;20075;-68
2021/12/23 10:44:35;;;;;;;70.15;31.48;;;;;;;-1.00;96.73;100414.16;20857117;28;20045;-68
2021/12/23 11:05:00;;;;;;;70.32;31.90;;;;;;;-0.69;96.30;100368.81;20854414;28;20045;-70
2021/12/23 11:46:35;;;;;;;61.13;27.13;;;;;;;0.51;96.37;100281.88;20853275;28;20099;-69
2021/12/23 11:56:43;;;;;;;66.57;30.65;;;;;;;0.80;96.46;100257.59;20853647;28;20184;-68
2021/12/23 12:06:47;;;;;;;61.20;26.52;;;;;;;0.99;95.81;100236.50;20850201;28;20099;-70
2021/12/23 12:16:49;;;;;;;60.13;26.53;;;;;;;1.11;95.26;100215.28;20848367;28;20052;-69
2021/12/23 12:27:03;;;;;;;60.55;26.77;;;;;;;1.49;94.38;100203.97;20849767;28;20414;-70
2021/12/23 12:37:06;;;;;;;50.43;22.17;;;;;;;1.74;91.92;100184.59;20848632;28;20041;-68
2021/12/23 12:47:17;;;;;;;45.35;21.83;;;;;;;2.18;87.08;100171.50;20851116;28;20058;-68
2021/12/23 12:57:23;;;;;;;44.75;21.35;;;;;;;2.31;85.23;100181.16;20844603;28;20100;-68
2021/12/23 13:07:31;;;;;;;37.38;18.30;;;;;;;2.70;82.23;100164.44;20853946;28;20053;-69
2021/12/23 13:17:49;;;;;;;37.05;19.42;;;;;;;2.89;80.95;100172.41;20859247;28;20053;-68
2021/12/23 13:27:50;;;;;;;31.08;16.13;;;;;;;3.11;79.86;100150.22;20862587;28;20069;-70
2021/12/23 13:37:52;;;;;;;36.97;16.45;;;;;;;3.20;78.95;100150.31;20863314;28;20041;-67
2021/12/23 13:47:56;;;;;;;35.03;14.85;;;;;;;3.30;78.45;100142.66;20861167;28;20499;-69
2021/12/23 13:57:59;;;;;;;33.13;16.13;;;;;;;3.36;78.09;100121.19;20862446;28;20053;-69
2021/12/23 14:08:04;;;;;;;31.60;15.70;;;;;;;3.50;77.70;100105.78;20857614;28;20160;-69
2021/12/23 14:28:42;;;;;;;31.60;14.68;;;;;;;3.69;76.84;100079.16;20864093;28;20114;-68
2021/12/23 14:38:52;;;;;;;30.67;15.38;;;;;;;3.56;77.84;100080.78;20854300;28;20042;-69
2021/12/23 14:59:21;;;;;;;33.30;15.70;;;;;;;3.46;78.88;100075.53;20834178;28;20053;-68
2021/12/23 15:09:23;;;;;;;33.33;16.67;;;;;;;3.54;78.80;100066.09;20856885;28;20095;-69
2021/12/23 15:19:37;;;;;;;32.95;15.85;;;;;;;3.57;78.99;100040.22;20850905;28;20045;-68
2021/12/23 15:29:45;;;;;;;30.48;16.27;;;;;;;3.52;79.74;100035.03;20848463;28;20053;-68
2021/12/23 15:39:47;;;;;;;31.17;16.00;;;;;;;3.62;79.36;100023.00;20848363;28;20041;-69
2021/12/23 15:49:50;;;;;;;29.15;14.35;;;;;;;3.92;78.38;100040.44;20854452;28;20498;-67
2021/12/23 15:59:52;;;;;;;30.65;14.52;;;;;;;3.82;78.71;100012.75;20865347;23;20050;-68
2021/12/23 16:09:56;;;;;;;33.30;15.30;;;;;;;3.97;78.52;100007.66;20768425;28;20054;-67
2021/12/23 16:19:59;;;;;;;24.30;13.37;;;;;;;4.16;77.27;100008.59;20771904;28;20041;-66
2021/12/23 16:30:16;;;;;;;28.90;14.43;;;;;;;4.10;77.82;99993.91;20769909;28;20792;-67
2021/12/23 16:40:40;;;;;;;27.95;13.00;;;;;;;4.47;76.36;99982.78;20773744;28;20152;-66
2021/12/23 16:50:45;;;;;;;25.52;12.70;;;;;;;4.74;75.20;99975.03;20784746;28;20107;-67
2021/12/23 17:00:48;;;;;;;;;;;;;;;4.88;74.48;99986.28;20785038;28;20051;-66
2021/12/23 17:10:51;;;;;;;28.55;13.63;;;;;;;4.81;74.64;99996.69;20778240;28;19964;-66
2021/12/23 17:30:55;;;;;;;28.50;13.95;;;;;;;4.68;76.93;99998.38;20784340;28;20107;-66
2021/12/23 17:40:57;;;;;;;27.25;13.88;;;;;;;4.67;77.23;99985.41;20780299;28;20105;-67
2021/12/23 17:51:01;;;;;;;27.80;14.27;;;;;;;4.71;77.54;99997.53;20781985;28;20116;-67
2021/12/23 18:01:04;;;;;;;29.10;13.27;;;;;;;4.83;76.98;99982.81;20774636;28;20121;-67
2021/12/23 18:11:07;;;;;;;26.60;14.17;;;;;;;4.79;78.84;100001.88;20768884;28;20060;-66
2021/12/23 18:21:08;;;;;;;25.85;13.77;;;;;;;4.98;77.85;99996.69;20777286;28;20097;-66
2021/12/23 18:31:10;;;;;;;28.65;14.25;;;;;;;4.96;78.45;100009.66;20778008;28;20554;-67
2021/12/23 18:41:19;;;;;;;28.38;14.07;;;;;;;5.01;78.87;99999.28;20775556;28;20049;-66
2021/12/23 18:51:23;;;;;;;29.65;13.38;;;;;;;5.08;78.78;99986.31;20776951;28;20108;-67
2021/12/23 19:01:36;;;;;;;26.80;13.77;;;;;;;5.23;79.08;99985.44;20770277;28;20068;-66
2021/12/23 19:11:39;;;;;;;23.10;12.93;;;;;;;5.29;79.45;99984.56;20767861;28;20049;-67
2021/12/23 19:21:44;;;;;;;23.92;12.82;;;;;;;5.34;78.83;99981.09;20771927;28;20054;-66
2021/12/23 19:31:45;;;;;;;24.73;11.67;;;;;;;5.38;79.13;99989.75;20773936;28;20045;-67
2021/12/23 19:41:47;;;;;;;22.55;11.75;;;;;;;5.63;78.47;99987.97;20771239;28;20050;-66
2021/12/23 19:51:53;;;;;;;25.05;13.07;;;;;;;5.56;78.68;99992.34;20771495;28;20075;-67
2021/12/23 20:01:55;;;;;;;20.70;10.38;;;;;;;5.80;78.78;99981.00;20770459;28;20045;-66
2021/12/23 20:11:57;;;;;;;27.70;15.27;;;;;;;5.80;79.64;99983.59;20767905;28;20053;-66
2021/12/23 20:21:59;;;;;;;34.65;18.63;;;;;;;5.85;80.12;99968.88;20769481;28;20050;-67
2021/12/23 20:32:02;;;;;;;21.98;11.77;;;;;;;5.78;80.44;99974.94;20770477;28;20399;-67
2021/12/23 20:42:04;;;;;;;19.73;11.30;;;;;;;5.77;80.78;99986.22;20768654;28;20058;-68
2021/12/23 20:52:07;;;;;;;23.98;11.45;;;;;;;5.81;81.26;99969.75;20770816;28;20108;-69
2021/12/23 21:02:10;;;;;;;20.85;11.70;;;;;;;5.66;81.31;99977.59;20762770;28;20100;-69
2021/12/23 21:12:12;;;;;;;20.70;11.52;;;;;;;5.55;82.31;99974.13;20762763;28;20058;-69
2021/12/23 21:22:14;;;;;;;23.48;11.05;;;;;;;5.54;82.38;99967.22;20768536;28;20116;-69
2021/12/23 21:32:15;;;;;;;22.02;10.95;;;;;;;5.66;81.23;99964.59;20779877;28;20545;-69
2021/12/23 21:42:16;;;;;;;23.85;12.13;;;;;;;5.64;81.83;99958.53;20781795;28;20096;-69
2021/12/23 21:52:19;;;;;;;19.50;11.43;;;;;;;5.58;82.79;99943.84;20781739;28;20111;-69
2021/12/23 22:02:21;;;;;;;24.73;12.73;;;;;;;5.64;82.88;99925.63;20779715;28;20054;-69
2021/12/23 22:12:24;;;;;;;20.23;11.77;;;;;;;5.76;83.48;99929.06;20775243;28;20073;-69
2021/12/23 22:22:25;;;;;;;20.25;11.27;;;;;;;5.94;83.76;99904.75;20778120;28;20049;-69
2021/12/23 22:32:27;;;;;;;21.38;11.10;;;;;;;5.84;84.42;99889.19;20779160;28;20045;-69
2021/12/23 22:42:28;;;;;;;23.00;11.13;;;;;;;6.10;83.96;99878.69;20778317;28;20100;-69
2021/12/23 22:52:30;;;;;;;23.55;12.45;;;;;;;6.06;85.20;99873.53;20776273;28;20057;-69
2021/12/23 23:02:31;;;;;;;20.00;10.35;;;;;;;6.13;84.45;99860.50;20774636;28;20099;-69
2021/12/23 23:12:36;;;;;;;22.85;11.13;;;;;;;6.15;84.47;99852.69;20781188;28;20141;-69
2021/12/23 23:22:38;;;;;;;;;;;;;;;6.39;83.12;99847.31;20782860;28;20073;-69
2021/12/23 23:43:04;;;;;;;20.80;9.55;;;;;;;6.72;82.48;99813.22;20779034;28;20100;-69
2021/12/23 23:53:09;;;;;;;;;;;;;;;6.85;81.93;99805.28;20780243;28;20050;-69
